sensor_id;sensor_type;location;lat;lon;timestamp;P1;durP1;ratioP1;P2;durP2;ratioP2
32106;SDS011;18622;51.998;10.440;2023-08-01T03:35:27;1.25;;;0.40;;
32106;SDS011;18622;51.998;10.440;2023-08-01T03:37:55;0.57;;;0.50;;
32106;SDS011;18622;51.998;10.440;2023-08-01T03:40:23;1.47;;;0.43;;
32106;SDS011;18622;51.998;10.440;2023-08-01T03:42:51;1.17;;;0.47;;
32106;SDS011;18622;51.998;10.440;2023-08-01T03:45:19;3.03;;;0.40;;
32106;SDS011;18622;51.998;10.440;2023-08-01T03:47:47;0.70;;;0.43;;
32106;SDS011;18622;51.998;10.440;2023-08-01T03:50:15;1.43;;;0.80;;
32106;SDS011;18622;51.998;10.440;2023-08-01T03:52:42;1.83;;;0.60;;
32106;SDS011;18622;51.998;10.440;2023-08-01T03:55:11;1.02;;;0.40;;
32106;SDS011;18622;51.998;10.440;2023-08-01T03:57:39;1.43;;;0.60;;
32106;SDS011;18622;51.998;10.440;2023-08-01T04:00:07;0.60;;;0.60;;
32106;SDS011;18622;51.998;10.440;2023-08-01T04:02:43;0.80;;;0.60;;
32106;SDS011;18622;51.998;10.440;2023-08-01T04:05:11;0.97;;;0.63;;
32106;SDS011;18622;51.998;10.440;2023-08-01T04:07:38;0.40;;;0.40;;
32106;SDS011;18622;51.998;10.440;2023-08-01T04:10:06;0.97;;;0.50;;
32106;SDS011;18622;51.998;10.440;2023-08-01T04:12:34;0.50;;;0.50;;
32106;SDS011;18622;51.998;10.440;2023-08-01T04:15:02;0.60;;;0.60;;
32106;SDS011;18622;51.998;10.440;2023-08-01T04:17:30;0.70;;;0.50;;
32106;SDS011;18622;51.998;10.440;2023-08-01T04:19:58;0.50;;;0.50;;
32106;SDS011;18622;51.998;10.440;2023-08-01T04:22:26;1.17;;;0.57;;
32106;SDS011;18622;51.998;10.440;2023-08-01T04:24:53;0.50;;;0.50;;
32106;SDS011;18622;51.998;10.440;2023-08-01T04:27:21;1.83;;;0.60;;
32106;SDS011;18622;51.998;10.440;2023-08-01T04:29:49;0.80;;;0.60;;
32106;SDS011;18622;51.998;10.440;2023-08-01T04:32:18;0.62;;;0.60;;
32106;SDS011;18622;51.998;10.440;2023-08-01T04:34:46;2.33;;;0.67;;
32106;SDS011;18622;51.998;10.440;2023-08-01T04:37:14;0.90;;;0.77;;
32106;SDS011;18622;51.998;10.440;2023-08-01T04:39:42;0.70;;;0.57;;
32106;SDS011;18622;51.998;10.440;2023-08-01T04:42:10;1.37;;;0.53;;
32106;SDS011;18622;51.998;10.440;2023-08-01T04:44:37;0.50;;;0.50;;
32106;SDS011;18622;51.998;10.440;2023-08-01T04:47:05;0.63;;;0.60;;
32106;SDS011;18622;51.998;10.440;2023-08-01T04:49:33;0.57;;;0.40;;
32106;SDS011;18622;51.998;10.440;2023-08-01T04:52:01;0.53;;;0.53;;
32106;SDS011;18622;51.998;10.440;2023-08-01T04:54:29;0.90;;;0.50;;
32106;SDS011;18622;51.998;10.440;2023-08-01T04:56:57;0.40;;;0.40;;
32106;SDS011;18622;51.998;10.440;2023-08-01T04:59:24;0.80;;;0.40;;
32106;SDS011;18622;51.998;10.440;2023-08-01T05:01:52;3.50;;;0.30;;
32106;SDS011;18622;51.998;10.440;2023-08-01T05:04:20;0.70;;;0.50;;
32106;SDS011;18622;51.998;10.440;2023-08-01T05:06:48;2.37;;;0.40;;
32106;SDS011;18622;51.998;10.440;2023-08-01T05:09:16;0.77;;;0.47;;
32106;SDS011;18622;51.998;10.440;2023-08-01T05:11:43;0.70;;;0.50;;
32106;SDS011;18622;51.998;10.440;2023-08-01T05:14:11;1.17;;;0.30;;
32106;SDS011;18622;51.998;10.440;2023-08-01T05:16:39;0.27;;;0.27;;
32106;SDS011;18622;51.998;10.440;2023-08-01T05:19:07;0.67;;;0.50;;
32106;SDS011;18622;51.998;10.440;2023-08-01T05:21:34;0.53;;;0.30;;
32106;SDS011;18622;51.998;10.440;2023-08-01T05:24:02;0.50;;;0.50;;
32106;SDS011;18622;51.998;10.440;2023-08-01T05:26:30;0.30;;;0.30;;
32106;SDS011;18622;51.998;10.440;2023-08-01T05:28:58;0.67;;;0.30;;
32106;SDS011;18622;51.998;10.440;2023-08-01T05:31:26;0.30;;;0.30;;
32106;SDS011;18622;51.998;10.440;2023-08-01T05:33:53;0.60;;;0.30;;
32106;SDS011;18622;51.998;10.440;2023-08-01T05:36:21;0.60;;;0.20;;
32106;SDS011;18622;51.998;10.440;2023-08-01T05:38:49;0.33;;;0.30;;
32106;SDS011;18622;51.998;10.440;2023-08-01T05:41:17;0.20;;;0.20;;
32106;SDS011;18622;51.998;10.440;2023-08-01T05:43:46;0.20;;;0.20;;
32106;SDS011;18622;51.998;10.440;2023-08-01T05:46:15;0.30;;;0.30;;
32106;SDS011;18622;51.998;10.440;2023-08-01T05:48:43;0.78;;;0.30;;
32106;SDS011;18622;51.998;10.440;2023-08-01T05:51:11;1.17;;;0.30;;
32106;SDS011;18622;51.998;10.440;2023-08-01T05:53:39;0.30;;;0.30;;
32106;SDS011;18622;51.998;10.440;2023-08-01T05:56:07;0.27;;;0.27;;
32106;SDS011;18622;51.998;10.440;2023-08-01T05:58:35;0.83;;;0.30;;
32106;SDS011;18622;51.998;10.440;2023-08-01T06:01:02;0.83;;;0.30;;
32106;SDS011;18622;51.998;10.440;2023-08-01T06:03:30;0.80;;;0.30;;
32106;SDS011;18622;51.998;10.440;2023-08-01T06:05:58;1.17;;;0.20;;
32106;SDS011;18622;51.998;10.440;2023-08-01T06:08:26;0.30;;;0.30;;
32106;SDS011;18622;51.998;10.440;2023-08-01T06:10:54;0.30;;;0.20;;
32106;SDS011;18622;51.998;10.440;2023-08-01T06:13:21;0.83;;;0.20;;
32106;SDS011;18622;51.998;10.440;2023-08-01T06:15:49;2.23;;;0.30;;
32106;SDS011;18622;51.998;10.440;2023-08-01T06:18:17;0.40;;;0.30;;
32106;SDS011;18622;51.998;10.440;2023-08-01T06:20:45;0.87;;;0.20;;
32106;SDS011;18622;51.998;10.440;2023-08-01T06:23:13;0.73;;;0.30;;
32106;SDS011;18622;51.998;10.440;2023-08-01T06:25:40;0.20;;;0.20;;
32106;SDS011;18622;51.998;10.440;2023-08-01T06:28:08;0.30;;;0.30;;
32106;SDS011;18622;51.998;10.440;2023-08-01T06:30:36;0.30;;;0.30;;
32106;SDS011;18622;51.998;10.440;2023-08-01T06:33:04;1.05;;;0.30;;
32106;SDS011;18622;51.998;10.440;2023-08-01T06:35:32;0.30;;;0.30;;
32106;SDS011;18622;51.998;10.440;2023-08-01T06:38:00;0.30;;;0.30;;
32106;SDS011;18622;51.998;10.440;2023-08-01T06:40:28;0.77;;;0.40;;
32106;SDS011;18622;51.998;10.440;2023-08-01T06:42:55;1.73;;;0.40;;
32106;SDS011;18622;51.998;10.440;2023-08-01T06:45:23;0.20;;;0.20;;
32106;SDS011;18622;51.998;10.440;2023-08-01T06:47:51;0.33;;;0.30;;
32106;SDS011;18622;51.998;10.440;2023-08-01T06:50:19;2.13;;;0.30;;
32106;SDS011;18622;51.998;10.440;2023-08-01T06:52:47;0.40;;;0.30;;
32106;SDS011;18622;51.998;10.440;2023-08-01T06:55:14;0.50;;;0.30;;
32106;SDS011;18622;51.998;10.440;2023-08-01T06:57:42;1.50;;;0.40;;
32106;SDS011;18622;51.998;10.440;2023-08-01T07:00:10;0.30;;;0.30;;
32106;SDS011;18622;51.998;10.440;2023-08-01T07:02:38;0.30;;;0.30;;
32106;SDS011;18622;51.998;10.440;2023-08-01T07:05:06;1.27;;;0.40;;
32106;SDS011;18622;51.998;10.440;2023-08-01T07:07:34;0.23;;;0.23;;
32106;SDS011;18622;51.998;10.440;2023-08-01T07:10:02;0.70;;;0.50;;
32106;SDS011;18622;51.998;10.440;2023-08-01T07:12:30;0.30;;;0.30;;
32106;SDS011;18622;51.998;10.440;2023-08-01T07:14:58;0.70;;;0.40;;
32106;SDS011;18622;51.998;10.440;2023-08-01T07:17:26;1.10;;;0.30;;
32106;SDS011;18622;51.998;10.440;2023-08-01T07:19:53;0.30;;;0.30;;
32106;SDS011;18622;51.998;10.440;2023-08-01T07:22:21;0.57;;;0.40;;
32106;SDS011;18622;51.998;10.440;2023-08-01T07:24:52;0.40;;;0.40;;
32106;SDS011;18622;51.998;10.440;2023-08-01T07:27:21;1.23;;;0.50;;
32106;SDS011;18622;51.998;10.440;2023-08-01T07:29:49;0.57;;;0.53;;
32106;SDS011;18622;51.998;10.440;2023-08-01T07:32:17;0.60;;;0.60;;
32106;SDS011;18622;51.998;10.440;2023-08-01T07:34:45;1.00;;;0.80;;
32106;SDS011;18622;51.998;10.440;2023-08-01T07:37:12;1.43;;;0.80;;
32106;SDS011;18622;51.998;10.440;2023-08-01T07:39:40;1.07;;;0.80;;
32106;SDS011;18622;51.998;10.440;2023-08-01T07:42:08;1.90;;;0.90;;
32106;SDS011;18622;51.998;10.440;2023-08-01T07:44:36;1.70;;;0.90;;
32106;SDS011;18622;51.998;10.440;2023-08-01T07:47:04;1.10;;;0.87;;
32106;SDS011;18622;51.998;10.440;2023-08-01T07:49:32;5.80;;;1.20;;
32106;SDS011;18622;51.998;10.440;2023-08-01T07:52:00;0.85;;;0.80;;
32106;SDS011;18622;51.998;10.440;2023-08-01T07:54:27;1.27;;;1.07;;
32106;SDS011;18622;51.998;10.440;2023-08-01T07:56:55;1.00;;;1.00;;
32106;SDS011;18622;51.998;10.440;2023-08-01T07:59:23;0.83;;;0.80;;
32106;SDS011;18622;51.998;10.440;2023-08-01T08:01:51;1.57;;;1.20;;
32106;SDS011;18622;51.998;10.440;2023-08-01T08:04:18;1.70;;;1.23;;
32106;SDS011;18622;51.998;10.440;2023-08-01T08:06:46;1.97;;;1.27;;
32106;SDS011;18622;51.998;10.440;2023-08-01T08:09:14;3.70;;;1.10;;
32106;SDS011;18622;51.998;10.440;2023-08-01T08:11:42;3.60;;;1.17;;
32106;SDS011;18622;51.998;10.440;2023-08-01T08:14:10;2.30;;;1.03;;
32106;SDS011;18622;51.998;10.440;2023-08-01T08:16:39;3.95;;;1.47;;
32106;SDS011;18622;51.998;10.440;2023-08-01T08:19:07;4.00;;;1.23;;
32106;SDS011;18622;51.998;10.440;2023-08-01T08:21:35;4.60;;;1.33;;
32106;SDS011;18622;51.998;10.440;2023-08-01T08:24:03;5.40;;;1.50;;
32106;SDS011;18622;51.998;10.440;2023-08-01T08:26:31;8.00;;;1.43;;
32106;SDS011;18622;51.998;10.440;2023-08-01T08:31:30;2.17;;;1.70;;
32106;SDS011;18622;51.998;10.440;2023-08-01T08:33:58;3.47;;;1.70;;
32106;SDS011;18622;51.998;10.440;2023-08-01T08:36:26;3.03;;;2.00;;
32106;SDS011;18622;51.998;10.440;2023-08-01T08:38:53;3.23;;;2.10;;
32106;SDS011;18622;51.998;10.440;2023-08-01T08:41:21;4.27;;;1.60;;
32106;SDS011;18622;51.998;10.440;2023-08-01T08:43:51;3.93;;;2.13;;
32106;SDS011;18622;51.998;10.440;2023-08-01T08:46:25;3.23;;;1.80;;
32106;SDS011;18622;51.998;10.440;2023-08-01T08:48:54;6.20;;;2.52;;
32106;SDS011;18622;51.998;10.440;2023-08-01T08:51:23;5.62;;;2.05;;
32106;SDS011;18622;51.998;10.440;2023-08-01T08:53:53;4.17;;;2.40;;
32106;SDS011;18622;51.998;10.440;2023-08-01T08:56:23;6.70;;;2.50;;
32106;SDS011;18622;51.998;10.440;2023-08-01T08:58:51;4.43;;;2.17;;
32106;SDS011;18622;51.998;10.440;2023-08-01T09:01:20;5.65;;;2.10;;
32106;SDS011;18622;51.998;10.440;2023-08-01T09:03:48;6.43;;;2.13;;
32106;SDS011;18622;51.998;10.440;2023-08-01T09:06:17;3.80;;;2.13;;
32106;SDS011;18622;51.998;10.440;2023-08-01T09:08:58;13.30;;;2.37;;
32106;SDS011;18622;51.998;10.440;2023-08-01T09:11:19;3.40;;;1.97;;
32106;SDS011;18622;51.998;10.440;2023-08-01T09:13:47;6.90;;;2.27;;
32106;SDS011;18622;51.998;10.440;2023-08-01T09:16:16;5.60;;;2.15;;
32106;SDS011;18622;51.998;10.440;2023-08-01T09:18:51;7.60;;;2.17;;
32106;SDS011;18622;51.998;10.440;2023-08-01T09:21:18;4.17;;;2.40;;
32106;SDS011;18622;51.998;10.440;2023-08-01T09:23:46;7.25;;;2.60;;
32106;SDS011;18622;51.998;10.440;2023-08-01T09:26:19;7.60;;;3.03;;
32106;SDS011;18622;51.998;10.440;2023-08-01T09:28:55;5.17;;;2.75;;
32106;SDS011;18622;51.998;10.440;2023-08-01T09:31:28;4.50;;;2.30;;
32106;SDS011;18622;51.998;10.440;2023-08-01T09:33:56;9.13;;;2.35;;
32106;SDS011;18622;51.998;10.440;2023-08-01T09:36:24;9.80;;;2.43;;
32106;SDS011;18622;51.998;10.440;2023-08-01T09:38:57;7.03;;;2.50;;
32106;SDS011;18622;51.998;10.440;2023-08-01T09:41:25;6.00;;;2.37;;
32106;SDS011;18622;51.998;10.440;2023-08-01T09:43:53;4.80;;;2.53;;
32106;SDS011;18622;51.998;10.440;2023-08-01T09:46:21;5.50;;;2.20;;
32106;SDS011;18622;51.998;10.440;2023-08-01T09:48:49;4.27;;;2.47;;
32106;SDS011;18622;51.998;10.440;2023-08-01T09:51:17;4.13;;;2.13;;
32106;SDS011;18622;51.998;10.440;2023-08-01T09:53:52;4.80;;;2.20;;
32106;SDS011;18622;51.998;10.440;2023-08-01T09:56:25;6.23;;;2.63;;
32106;SDS011;18622;51.998;10.440;2023-08-01T09:58:57;7.53;;;2.75;;
32106;SDS011;18622;51.998;10.440;2023-08-01T10:01:27;4.53;;;2.20;;
32106;SDS011;18622;51.998;10.440;2023-08-01T10:03:58;3.75;;;2.33;;
32106;SDS011;18622;51.998;10.440;2023-08-01T10:06:28;7.03;;;2.67;;
32106;SDS011;18622;51.998;10.440;2023-08-01T10:08:57;5.30;;;2.20;;
32106;SDS011;18622;51.998;10.440;2023-08-01T10:11:25;6.22;;;2.50;;
32106;SDS011;18622;51.998;10.440;2023-08-01T10:13:55;3.87;;;2.00;;
32106;SDS011;18622;51.998;10.440;2023-08-01T10:16:23;3.30;;;1.63;;
32106;SDS011;18622;51.998;10.440;2023-08-01T10:18:51;4.95;;;1.92;;
32106;SDS011;18622;51.998;10.440;2023-08-01T10:21:21;4.03;;;1.70;;
32106;SDS011;18622;51.998;10.440;2023-08-01T10:23:49;3.27;;;1.60;;
32106;SDS011;18622;51.998;10.440;2023-08-01T10:26:17;3.23;;;1.50;;
32106;SDS011;18622;51.998;10.440;2023-08-01T10:28:51;3.17;;;1.83;;
32106;SDS011;18622;51.998;10.440;2023-08-01T10:31:20;3.37;;;1.50;;
32106;SDS011;18622;51.998;10.440;2023-08-01T10:33:48;3.23;;;1.70;;
32106;SDS011;18622;51.998;10.440;2023-08-01T10:36:22;2.47;;;1.60;;
32106;SDS011;18622;51.998;10.440;2023-08-01T10:38:51;3.97;;;2.00;;
32106;SDS011;18622;51.998;10.440;2023-08-01T10:41:21;3.08;;;1.77;;
32106;SDS011;18622;51.998;10.440;2023-08-01T10:43:50;6.33;;;1.50;;
32106;SDS011;18622;51.998;10.440;2023-08-01T10:46:18;3.43;;;1.50;;
32106;SDS011;18622;51.998;10.440;2023-08-01T10:48:49;2.30;;;1.50;;
32106;SDS011;18622;51.998;10.440;2023-08-01T10:51:18;2.87;;;1.30;;
32106;SDS011;18622;51.998;10.440;2023-08-01T10:53:46;2.33;;;1.33;;
32106;SDS011;18622;51.998;10.440;2023-08-01T10:56:17;2.30;;;1.50;;
32106;SDS011;18622;51.998;10.440;2023-08-01T10:58:46;2.35;;;1.10;;
32106;SDS011;18622;51.998;10.440;2023-08-01T11:01:15;1.40;;;1.30;;
32106;SDS011;18622;51.998;10.440;2023-08-01T11:03:42;3.73;;;1.63;;
32106;SDS011;18622;51.998;10.440;2023-08-01T11:06:10;1.50;;;1.37;;
32106;SDS011;18622;51.998;10.440;2023-08-01T11:08:38;1.70;;;1.33;;
32106;SDS011;18622;51.998;10.440;2023-08-01T11:11:12;5.40;;;2.60;;
32106;SDS011;18622;51.998;10.440;2023-08-01T11:13:41;1.17;;;1.07;;
32106;SDS011;18622;51.998;10.440;2023-08-01T11:16:10;1.25;;;1.10;;
32106;SDS011;18622;51.998;10.440;2023-08-01T11:18:42;3.30;;;1.70;;
32106;SDS011;18622;51.998;10.440;2023-08-01T11:21:09;2.47;;;1.72;;
32106;SDS011;18622;51.998;10.440;2023-08-01T11:23:37;3.43;;;1.90;;
32106;SDS011;18622;51.998;10.440;2023-08-01T11:26:08;1.97;;;1.57;;
32106;SDS011;18622;51.998;10.440;2023-08-01T11:28:36;5.17;;;1.57;;
32106;SDS011;18622;51.998;10.440;2023-08-01T11:31:10;3.43;;;1.40;;
32106;SDS011;18622;51.998;10.440;2023-08-01T11:33:41;2.73;;;1.40;;
32106;SDS011;18622;51.998;10.440;2023-08-01T11:36:09;2.00;;;1.60;;
32106;SDS011;18622;51.998;10.440;2023-08-01T11:38:37;1.30;;;1.20;;
32106;SDS011;18622;51.998;10.440;2023-08-01T11:41:06;1.85;;;1.60;;
32106;SDS011;18622;51.998;10.440;2023-08-01T11:43:38;2.03;;;1.30;;
32106;SDS011;18622;51.998;10.440;2023-08-01T11:46:10;1.57;;;1.03;;
32106;SDS011;18622;51.998;10.440;2023-08-01T11:48:39;2.27;;;1.40;;
32106;SDS011;18622;51.998;10.440;2023-08-01T11:51:09;1.75;;;1.15;;
32106;SDS011;18622;51.998;10.440;2023-08-01T11:53:37;2.80;;;1.40;;
32106;SDS011;18622;51.998;10.440;2023-08-01T11:56:05;2.37;;;1.77;;
32106;SDS011;18622;51.998;10.440;2023-08-01T11:58:34;2.63;;;1.50;;
32106;SDS011;18622;51.998;10.440;2023-08-01T12:01:07;1.53;;;1.37;;
32106;SDS011;18622;51.998;10.440;2023-08-01T12:03:43;1.93;;;1.50;;
32106;SDS011;18622;51.998;10.440;2023-08-01T12:06:12;1.75;;;1.30;;
32106;SDS011;18622;51.998;10.440;2023-08-01T12:08:46;7.17;;;1.60;;
32106;SDS011;18622;51.998;10.440;2023-08-01T12:11:17;1.72;;;1.30;;
32106;SDS011;18622;51.998;10.440;2023-08-01T12:14:00;1.80;;;1.67;;
32106;SDS011;18622;51.998;10.440;2023-08-01T12:16:29;4.37;;;1.57;;
32106;SDS011;18622;51.998;10.440;2023-08-01T12:18:57;1.87;;;1.52;;
32106;SDS011;18622;51.998;10.440;2023-08-01T12:21:25;3.37;;;1.60;;
32106;SDS011;18622;51.998;10.440;2023-08-01T12:23:53;3.07;;;1.53;;
32106;SDS011;18622;51.998;10.440;2023-08-01T12:26:21;1.60;;;1.50;;
32106;SDS011;18622;51.998;10.440;2023-08-01T12:28:49;2.40;;;1.77;;
32106;SDS011;18622;51.998;10.440;2023-08-01T12:31:17;2.47;;;1.70;;
32106;SDS011;18622;51.998;10.440;2023-08-01T12:33:45;2.22;;;1.65;;
32106;SDS011;18622;51.998;10.440;2023-08-01T12:36:14;4.87;;;1.92;;
32106;SDS011;18622;51.998;10.440;2023-08-01T12:38:41;5.67;;;2.00;;
32106;SDS011;18622;51.998;10.440;2023-08-01T12:41:09;4.67;;;2.03;;
32106;SDS011;18622;51.998;10.440;2023-08-01T12:43:37;3.73;;;1.97;;
32106;SDS011;18622;51.998;10.440;2023-08-01T12:46:05;2.87;;;1.90;;
32106;SDS011;18622;51.998;10.440;2023-08-01T12:48:33;2.17;;;1.93;;
32106;SDS011;18622;51.998;10.440;2023-08-01T12:51:02;3.80;;;2.30;;
32106;SDS011;18622;51.998;10.440;2023-08-01T12:53:29;2.75;;;2.30;;
32106;SDS011;18622;51.998;10.440;2023-08-01T12:55:57;4.10;;;2.27;;
32106;SDS011;18622;51.998;10.440;2023-08-01T12:58:25;3.23;;;2.17;;
32106;SDS011;18622;51.998;10.440;2023-08-01T13:00:53;3.90;;;2.20;;
32106;SDS011;18622;51.998;10.440;2023-08-01T13:03:22;4.25;;;2.08;;
32106;SDS011;18622;51.998;10.440;2023-08-01T13:05:50;5.60;;;2.30;;
32106;SDS011;18622;51.998;10.440;2023-08-01T13:08:18;4.62;;;2.10;;
32106;SDS011;18622;51.998;10.440;2023-08-01T13:10:46;4.60;;;2.23;;
32106;SDS011;18622;51.998;10.440;2023-08-01T13:13:16;3.08;;;2.40;;
32106;SDS011;18622;51.998;10.440;2023-08-01T13:15:44;4.53;;;2.83;;
32106;SDS011;18622;51.998;10.440;2023-08-01T13:18:11;4.73;;;2.87;;
32106;SDS011;18622;51.998;10.440;2023-08-01T13:20:40;5.12;;;2.52;;
32106;SDS011;18622;51.998;10.440;2023-08-01T13:23:07;6.07;;;2.47;;
32106;SDS011;18622;51.998;10.440;2023-08-01T13:25:35;4.07;;;2.80;;
32106;SDS011;18622;51.998;10.440;2023-08-01T13:28:05;4.70;;;2.90;;
32106;SDS011;18622;51.998;10.440;2023-08-01T13:30:33;5.00;;;2.93;;
32106;SDS011;18622;51.998;10.440;2023-08-01T13:33:01;6.90;;;3.20;;
32106;SDS011;18622;51.998;10.440;2023-08-01T13:35:29;6.67;;;3.37;;
32106;SDS011;18622;51.998;10.440;2023-08-01T13:37:57;3.47;;;2.87;;
32106;SDS011;18622;51.998;10.440;2023-08-01T13:40:25;6.00;;;2.70;;
32106;SDS011;18622;51.998;10.440;2023-08-01T13:42:53;2.77;;;2.45;;
32106;SDS011;18622;51.998;10.440;2023-08-01T13:45:20;6.53;;;3.00;;
32106;SDS011;18622;51.998;10.440;2023-08-01T13:47:48;13.60;;;3.30;;
32106;SDS011;18622;51.998;10.440;2023-08-01T13:50:16;5.37;;;2.83;;
32106;SDS011;18622;51.998;10.440;2023-08-01T13:52:44;3.83;;;2.47;;
32106;SDS011;18622;51.998;10.440;2023-08-01T13:55:12;3.87;;;2.33;;
32106;SDS011;18622;51.998;10.440;2023-08-01T13:57:41;2.70;;;2.33;;
32106;SDS011;18622;51.998;10.440;2023-08-01T14:00:09;5.97;;;2.50;;
32106;SDS011;18622;51.998;10.440;2023-08-01T14:02:40;4.80;;;2.07;;
32106;SDS011;18622;51.998;10.440;2023-08-01T14:05:08;6.20;;;1.73;;
32106;SDS011;18622;51.998;10.440;2023-08-01T14:07:36;5.83;;;2.00;;
32106;SDS011;18622;51.998;10.440;2023-08-01T14:10:04;3.87;;;1.70;;
32106;SDS011;18622;51.998;10.440;2023-08-01T14:12:32;7.20;;;2.15;;
32106;SDS011;18622;51.998;10.440;2023-08-01T14:15:00;2.07;;;1.20;;
32106;SDS011;18622;51.998;10.440;2023-08-01T14:17:28;5.33;;;1.43;;
32106;SDS011;18622;51.998;10.440;2023-08-01T14:19:56;3.43;;;1.40;;
32106;SDS011;18622;51.998;10.440;2023-08-01T14:22:23;2.07;;;1.40;;
32106;SDS011;18622;51.998;10.440;2023-08-01T14:24:51;3.80;;;1.80;;
32106;SDS011;18622;51.998;10.440;2023-08-01T14:27:19;4.23;;;1.80;;
32106;SDS011;18622;51.998;10.440;2023-08-01T14:29:47;2.50;;;1.53;;
32106;SDS011;18622;51.998;10.440;2023-08-01T14:32:17;3.07;;;1.40;;
32106;SDS011;18622;51.998;10.440;2023-08-01T14:34:45;1.92;;;1.52;;
32106;SDS011;18622;51.998;10.440;2023-08-01T14:37:13;2.17;;;1.50;;
32106;SDS011;18622;51.998;10.440;2023-08-01T14:39:41;2.63;;;1.67;;
32106;SDS011;18622;51.998;10.440;2023-08-01T14:42:09;3.03;;;1.47;;
32106;SDS011;18622;51.998;10.440;2023-08-01T14:44:37;3.30;;;1.40;;
32106;SDS011;18622;51.998;10.440;2023-08-01T14:47:05;4.43;;;1.97;;
32106;SDS011;18622;51.998;10.440;2023-08-01T14:49:32;3.03;;;1.70;;
32106;SDS011;18622;51.998;10.440;2023-08-01T14:52:00;4.07;;;2.00;;
32106;SDS011;18622;51.998;10.440;2023-08-01T14:54:28;5.10;;;1.80;;
32106;SDS011;18622;51.998;10.440;2023-08-01T14:56:57;4.70;;;2.00;;
32106;SDS011;18622;51.998;10.440;2023-08-01T14:59:24;2.37;;;1.67;;
32106;SDS011;18622;51.998;10.440;2023-08-01T15:01:52;3.90;;;1.63;;
32106;SDS011;18622;51.998;10.440;2023-08-01T15:04:20;4.87;;;1.80;;
32106;SDS011;18622;51.998;10.440;2023-08-01T15:06:48;5.33;;;2.10;;
32106;SDS011;18622;51.998;10.440;2023-08-01T15:09:16;6.37;;;2.30;;
32106;SDS011;18622;51.998;10.440;2023-08-01T15:11:43;2.80;;;1.73;;
32106;SDS011;18622;51.998;10.440;2023-08-01T15:14:11;3.47;;;2.10;;
32106;SDS011;18622;51.998;10.440;2023-08-01T15:16:39;5.23;;;2.33;;
32106;SDS011;18622;51.998;10.440;2023-08-01T15:19:07;4.80;;;2.50;;
32106;SDS011;18622;51.998;10.440;2023-08-01T15:21:35;5.80;;;2.20;;
32106;SDS011;18622;51.998;10.440;2023-08-01T15:24:02;5.23;;;2.13;;
32106;SDS011;18622;51.998;10.440;2023-08-01T15:26:30;3.33;;;2.10;;
32106;SDS011;18622;51.998;10.440;2023-08-01T15:28:58;2.80;;;1.87;;
32106;SDS011;18622;51.998;10.440;2023-08-01T15:31:26;3.67;;;1.70;;
32106;SDS011;18622;51.998;10.440;2023-08-01T15:33:54;1.93;;;1.43;;
32106;SDS011;18622;51.998;10.440;2023-08-01T15:36:28;2.40;;;1.40;;
32106;SDS011;18622;51.998;10.440;2023-08-01T15:38:56;5.23;;;1.50;;
32106;SDS011;18622;51.998;10.440;2023-08-01T15:41:24;6.22;;;1.55;;
32106;SDS011;18622;51.998;10.440;2023-08-01T15:43:52;2.93;;;1.43;;
32106;SDS011;18622;51.998;10.440;2023-08-01T15:46:20;1.30;;;1.07;;
32106;SDS011;18622;51.998;10.440;2023-08-01T15:48:48;2.27;;;1.23;;
32106;SDS011;18622;51.998;10.440;2023-08-01T15:51:16;3.63;;;1.20;;
32106;SDS011;18622;51.998;10.440;2023-08-01T15:53:44;3.97;;;1.67;;
32106;SDS011;18622;51.998;10.440;2023-08-01T15:56:11;1.93;;;1.10;;
32106;SDS011;18622;51.998;10.440;2023-08-01T15:58:39;2.47;;;1.20;;
32106;SDS011;18622;51.998;10.440;2023-08-01T16:01:07;1.83;;;1.27;;
32106;SDS011;18622;51.998;10.440;2023-08-01T16:03:40;4.77;;;1.30;;
32106;SDS011;18622;51.998;10.440;2023-08-01T16:06:06;2.27;;;1.40;;
32106;SDS011;18622;51.998;10.440;2023-08-01T16:08:34;2.87;;;1.40;;
32106;SDS011;18622;51.998;10.440;2023-08-01T16:11:02;2.37;;;1.40;;
32106;SDS011;18622;51.998;10.440;2023-08-01T16:13:30;3.03;;;1.50;;
32106;SDS011;18622;51.998;10.440;2023-08-01T16:15:58;1.30;;;1.20;;
32106;SDS011;18622;51.998;10.440;2023-08-01T16:18:26;2.50;;;1.60;;
32106;SDS011;18622;51.998;10.440;2023-08-01T16:20:54;2.73;;;1.23;;
32106;SDS011;18622;51.998;10.440;2023-08-01T16:23:22;2.10;;;1.83;;
32106;SDS011;18622;51.998;10.440;2023-08-01T16:25:49;2.63;;;1.40;;
32106;SDS011;18622;51.998;10.440;2023-08-01T16:28:17;1.50;;;1.40;;
32106;SDS011;18622;51.998;10.440;2023-08-01T16:30:45;3.00;;;1.50;;
32106;SDS011;18622;51.998;10.440;2023-08-01T16:33:14;2.60;;;1.50;;
32106;SDS011;18622;51.998;10.440;2023-08-01T16:35:43;3.83;;;1.42;;
32106;SDS011;18622;51.998;10.440;2023-08-01T16:38:11;2.93;;;1.60;;
32106;SDS011;18622;51.998;10.440;2023-08-01T16:40:39;3.30;;;1.60;;
32106;SDS011;18622;51.998;10.440;2023-08-01T16:43:07;2.30;;;1.27;;
32106;SDS011;18622;51.998;10.440;2023-08-01T16:45:36;2.30;;;1.27;;
32106;SDS011;18622;51.998;10.440;2023-08-01T16:48:04;3.17;;;1.67;;
32106;SDS011;18622;51.998;10.440;2023-08-01T16:50:32;2.27;;;1.30;;
32106;SDS011;18622;51.998;10.440;2023-08-01T16:52:59;3.00;;;1.50;;
32106;SDS011;18622;51.998;10.440;2023-08-01T16:55:27;2.70;;;1.40;;
32106;SDS011;18622;51.998;10.440;2023-08-01T16:57:55;4.13;;;1.57;;
32106;SDS011;18622;51.998;10.440;2023-08-01T17:00:23;2.60;;;1.60;;
32106;SDS011;18622;51.998;10.440;2023-08-01T17:02:51;3.03;;;1.40;;
32106;SDS011;18622;51.998;10.440;2023-08-01T17:05:19;2.67;;;1.37;;
32106;SDS011;18622;51.998;10.440;2023-08-01T17:07:47;2.27;;;1.50;;
32106;SDS011;18622;51.998;10.440;2023-08-01T17:10:14;3.37;;;1.50;;
32106;SDS011;18622;51.998;10.440;2023-08-01T17:12:42;3.67;;;2.00;;
32106;SDS011;18622;51.998;10.440;2023-08-01T17:15:10;2.50;;;1.27;;
32106;SDS011;18622;51.998;10.440;2023-08-01T17:17:38;4.87;;;1.63;;
32106;SDS011;18622;51.998;10.440;2023-08-01T17:20:06;6.07;;;1.80;;
32106;SDS011;18622;51.998;10.440;2023-08-01T17:22:34;2.45;;;1.45;;
32106;SDS011;18622;51.998;10.440;2023-08-01T17:25:02;6.07;;;1.60;;
32106;SDS011;18622;51.998;10.440;2023-08-01T17:27:30;3.05;;;1.55;;
32106;SDS011;18622;51.998;10.440;2023-08-01T17:29:58;3.97;;;1.70;;
32106;SDS011;18622;51.998;10.440;2023-08-01T17:32:27;2.60;;;1.40;;
32106;SDS011;18622;51.998;10.440;2023-08-01T17:34:55;2.93;;;1.07;;
32106;SDS011;18622;51.998;10.440;2023-08-01T17:37:23;5.58;;;1.65;;
32106;SDS011;18622;51.998;10.440;2023-08-01T17:39:51;3.67;;;1.70;;
32106;SDS011;18622;51.998;10.440;2023-08-01T17:42:18;2.73;;;1.43;;
32106;SDS011;18622;51.998;10.440;2023-08-01T17:44:46;3.73;;;1.50;;
32106;SDS011;18622;51.998;10.440;2023-08-01T17:47:14;4.27;;;1.60;;
32106;SDS011;18622;51.998;10.440;2023-08-01T17:49:42;6.40;;;2.27;;
32106;SDS011;18622;51.998;10.440;2023-08-01T17:52:10;6.43;;;1.53;;
32106;SDS011;18622;51.998;10.440;2023-08-01T17:54:37;2.90;;;1.70;;
32106;SDS011;18622;51.998;10.440;2023-08-01T17:57:05;5.77;;;1.60;;
32106;SDS011;18622;51.998;10.440;2023-08-01T17:59:33;5.43;;;1.80;;
32106;SDS011;18622;51.998;10.440;2023-08-01T18:02:03;5.40;;;1.62;;
32106;SDS011;18622;51.998;10.440;2023-08-01T18:04:32;4.22;;;1.75;;
32106;SDS011;18622;51.998;10.440;2023-08-01T18:07:00;3.95;;;2.15;;
32106;SDS011;18622;51.998;10.440;2023-08-01T18:09:28;4.33;;;1.83;;
32106;SDS011;18622;51.998;10.440;2023-08-01T18:11:55;4.80;;;1.67;;
32106;SDS011;18622;51.998;10.440;2023-08-01T18:14:23;4.17;;;1.40;;
32106;SDS011;18622;51.998;10.440;2023-08-01T18:16:51;2.50;;;1.60;;